Time;durP1;ratioP1;P1;durP2;ratioP2;P2;SDS_P1;SDS_P2;PMS_P1;PMS_P2;Temp;Humidity;BMP_temperature;BMP_pressure;BME280_temperature;BME280_humidity;BME280_pressure;Samples;Min_cycle;Max_cycle;Signal;HPM_P1;HPM_P2
2023/12/02 00:04:16;;;;;;;16.20;12.00;;;20.00;47.60;;;;;;222163;1259;23925;-57
2023/12/02 00:09:20;;;;;;;14.90;12.70;;;19.90;47.50;;;;;;222528;1263;25256;-59
2023/12/02 00:14:25;;;;;;;14.10;11.80;;;19.80;47.90;;;;;;222751;1266;24269;-58
2023/12/02 00:19:29;;;;;;;14.10;11.60;;;19.80;47.70;;;;;;223131;1254;24260;-58
2023/12/02 00:24:33;;;;;;;15.40;11.00;;;19.70;47.90;;;;;;222819;1266;25591;-58
2023/12/02 00:29:38;;;;;;;14.70;11.70;;;19.70;48.00;;;;;;222712;1260;22530;-58
2023/12/02 00:34:42;;;;;;;14.90;12.10;;;19.60;48.00;;;;;;222868;1264;22524;-59
2023/12/02 00:39:46;;;;;;;14.30;11.80;;;19.50;48.40;;;;;;222490;1260;22541;-58
2023/12/02 00:44:51;;;;;;;12.30;10.80;;;19.40;48.10;;;;;;222699;1268;22534;-58
2023/12/02 00:49:55;;;;;;;12.10;10.90;;;19.40;48.20;;;;;;222962;1268;24171;-58
2023/12/02 00:54:59;;;;;;;14.90;11.50;;;19.40;48.30;;;;;;222792;1268;22636;-57
2023/12/02 01:00:05;;;;;;;13.80;11.30;;;19.30;48.30;;;;;;222586;1265;22647;-57
2023/12/02 01:05:09;;;;;;;13.10;11.10;;;19.60;47.50;;;;;;222650;1263;25383;-57
2023/12/02 01:10:14;;;;;;;14.40;10.90;;;20.10;47.00;;;;;;222434;1267;22581;-57
2023/12/02 01:15:19;;;;;;;14.20;10.90;;;20.50;46.10;;;;;;222371;1260;23956;-57
2023/12/02 01:20:23;;;;;;;15.30;11.30;;;20.70;45.70;;;;;;222879;1266;22642;-57
2023/12/02 01:25:28;;;;;;;14.90;11.10;;;20.70;45.70;;;;;;222796;1268;25777;-58
2023/12/02 01:30:32;;;;;;;12.00;10.70;;;20.70;45.70;;;;;;222862;1263;22660;-59
2023/12/02 01:35:36;;;;;;;12.90;10.70;;;20.50;45.90;;;;;;223108;1263;22743;-58
2023/12/02 01:40:41;;;;;;;12.50;10.10;;;20.40;46.60;;;;;;223120;1268;22531;-57
2023/12/02 01:45:45;;;;;;;12.00;10.40;;;20.30;46.40;;;;;;222753;1260;24371;-58
2023/12/02 01:50:49;;;;;;;12.00;10.50;;;20.30;46.50;;;;;;222769;1253;22520;-58
2023/12/02 01:55:54;;;;;;;13.90;11.40;;;20.10;46.60;;;;;;222636;1266;22734;-58
2023/12/02 02:00:58;;;;;;;13.00;9.80;;;20.10;46.80;;;;;;222763;1266;22713;-56
2023/12/02 02:06:03;;;;;;;12.50;9.80;;;20.00;47.30;;;;;;222585;1259;22579;-59
2023/12/02 02:11:07;;;;;;;10.10;9.00;;;20.00;46.90;;;;;;222851;1262;22648;-57
2023/12/02 02:16:12;;;;;;;9.80;8.80;;;19.90;47.10;;;;;;222149;1263;24072;-58
2023/12/02 02:21:20;;;;;;;11.90;9.50;;;19.80;47.10;;;;;;222363;1263;24365;-58
2023/12/02 02:26:24;;;;;;;10.70;9.20;;;19.70;47.40;;;;;;222352;1263;22517;-58
2023/12/02 02:31:28;;;;;;;11.20;9.60;;;19.60;47.90;;;;;;222619;1266;22591;-58
2023/12/02 02:36:34;;;;;;;11.80;9.40;;;19.60;47.60;;;;;;222742;1269;22537;-56
2023/12/02 02:41:39;;;;;;;11.20;10.00;;;19.50;47.70;;;;;;222590;1254;22640;-57
2023/12/02 02:46:43;;;;;;;12.80;9.80;;;19.40;47.80;;;;;;222384;1256;22633;-56
2023/12/02 02:51:47;;;;;;;12.20;9.40;;;19.40;47.90;;;;;;222374;1262;22553;-56
2023/12/02 02:56:51;;;;;;;10.70;9.30;;;19.40;47.90;;;;;;222155;1268;25452;-57
2023/12/02 03:01:56;;;;;;;11.10;9.40;;;19.50;47.60;;;;;;222210;1263;22523;-58
2023/12/02 03:07:00;;;;;;;11.50;9.20;;;20.00;46.70;;;;;;222804;1263;25281;-58
2023/12/02 03:12:05;;;;;;;11.10;8.80;;;20.50;46.20;;;;;;222361;1266;22629;-56
2023/12/02 03:17:09;;;;;;;10.80;9.30;;;20.70;45.70;;;;;;223058;1266;22515;-58
2023/12/02 03:22:14;;;;;;;10.30;8.80;;;20.70;45.20;;;;;;222407;1247;24075;-57
2023/12/02 03:27:18;;;;;;;10.50;9.00;;;20.60;45.40;;;;;;222113;1254;22603;-57
2023/12/02 03:32:22;;;;;;;10.80;9.20;;;20.60;45.10;;;;;;222481;1261;22751;-58
2023/12/02 03:37:27;;;;;;;10.00;9.00;;;20.50;45.50;;;;;;222572;1257;22511;-57
2023/12/02 03:42:31;;;;;;;11.50;9.00;;;20.40;45.80;;;;;;222438;1263;22629;-57
2023/12/02 03:47:38;;;;;;;10.50;9.10;;;20.20;45.40;;;;;;222417;1263;24233;-58
2023/12/02 03:52:42;;;;;;;10.30;9.00;;;20.20;46.20;;;;;;222467;1266;22586;-56
2023/12/02 03:57:46;;;;;;;11.30;8.30;;;20.10;46.20;;;;;;222551;1269;26619;-56
2023/12/02 04:02:51;;;;;;;9.90;8.90;;;19.90;46.60;;;;;;222399;1257;22611;-57
2023/12/02 04:07:55;;;;;;;11.60;9.20;;;19.90;46.50;;;;;;222662;1269;26499;-58
2023/12/02 04:13:00;;;;;;;11.80;9.10;;;19.80;46.70;;;;;;222465;1262;25396;-58
2023/12/02 04:18:04;;;;;;;11.20;9.20;;;19.70;46.90;;;;;;222735;1260;22521;-57
2023/12/02 04:23:09;;;;;;;11.40;9.40;;;19.60;47.40;;;;;;222786;1261;22526;-58
2023/12/02 04:28:13;;;;;;;11.80;9.20;;;19.60;47.60;;;;;;222619;1268;22510;-58
2023/12/02 04:33:17;;;;;;;10.90;8.90;;;19.50;47.60;;;;;;222825;1268;22550;-60
2023/12/02 04:38:22;;;;;;;11.70;9.50;;;19.50;47.40;;;;;;223269;1247;22564;-58
2023/12/02 04:43:26;;;;;;;10.00;8.50;;;19.40;47.40;;;;;;222690;1267;22626;-58
2023/12/02 04:48:30;;;;;;;10.60;8.70;;;19.40;47.80;;;;;;222407;1260;24222;-57
2023/12/02 04:53:35;;;;;;;10.50;8.90;;;19.30;47.50;;;;;;222562;1266;22592;-56
2023/12/02 04:58:39;;;;;;;9.40;8.50;;;19.50;47.20;;;;;;222668;1268;25494;-59
2023/12/02 05:03:43;;;;;;;10.50;8.90;;;20.00;46.20;;;;;;222461;1266;23944;-58
2023/12/02 05:08:48;;;;;;;10.70;9.10;;;20.40;45.50;;;;;;222395;1269;22515;-59
2023/12/02 05:13:52;;;;;;;10.70;8.70;;;20.60;45.00;;;;;;222372;1268;24333;-56
2023/12/02 05:18:56;;;;;;;10.60;8.70;;;20.70;44.90;;;;;;222236;1261;22627;-57
2023/12/02 05:24:01;;;;;;;8.50;7.60;;;20.70;45.40;;;;;;222436;1263;22513;-57
2023/12/02 05:29:05;;;;;;;9.80;8.70;;;20.60;45.60;;;;;;222857;1258;23922;-58
2023/12/02 05:34:09;;;;;;;11.30;9.00;;;20.50;45.40;;;;;;222513;1262;22504;-57
2023/12/02 05:39:14;;;;;;;9.80;8.60;;;20.30;45.70;;;;;;222439;1253;22652;-56
2023/12/02 05:44:19;;;;;;;11.80;8.60;;;20.20;45.90;;;;;;222760;1256;22794;-57
2023/12/02 05:49:23;;;;;;;9.60;8.60;;;20.10;46.40;;;;;;223155;1268;25416;-62
2023/12/02 05:54:27;;;;;;;9.80;8.60;;;20.00;46.00;;;;;;222605;1268;23289;-57
2023/12/02 05:59:32;;;;;;;9.20;8.30;;;19.90;46.70;;;;;;222737;1263;23231;-58
2023/12/02 06:04:36;;;;;;;9.90;8.60;;;20.00;46.30;;;;;;222968;1268;22521;-57
2023/12/02 06:09:43;;;;;;;9.70;8.70;;;19.80;46.90;;;;;;222734;1266;26500;-57
2023/12/02 06:14:48;;;;;;;9.90;8.10;;;19.70;46.60;;;;;;222639;1268;22685;-56
2023/12/02 06:19:52;;;;;;;11.10;9.30;;;19.70;46.80;;;;;;222233;1266;562159;-60
2023/12/02 06:24:56;;;;;;;9.90;8.90;;;19.60;47.00;;;;;;222702;1263;25322;-59
2023/12/02 06:30:00;;;;;;;10.20;8.90;;;19.50;47.00;;;;;;222972;1254;24391;-58
2023/12/02 06:35:06;;;;;;;10.70;9.30;;;19.50;47.00;;;;;;222564;1268;24190;-58
2023/12/02 06:40:11;;;;;;;10.40;8.60;;;19.40;47.10;;;;;;222444;1266;24343;-57
2023/12/02 06:45:15;;;;;;;10.20;9.10;;;19.40;47.20;;;;;;222599;1262;22468;-58
2023/12/02 06:50:22;;;;;;;12.30;8.90;;;19.30;47.30;;;;;;222487;1257;24070;-57
2023/12/02 06:55:27;;;;;;;11.30;8.90;;;19.30;47.30;;;;;;222550;1268;22515;-57
2023/12/02 07:00:34;;;;;;;10.50;8.60;;;19.20;47.30;;;;;;222498;1263;22526;-56
2023/12/02 07:05:38;;;;;;;10.40;8.40;;;19.20;47.10;;;;;;222965;1266;24375;-57
2023/12/02 07:10:42;;;;;;;10.10;8.50;;;19.10;47.30;;;;;;222774;1266;24664;-57
2023/12/02 07:15:47;;;;;;;11.40;9.00;;;19.10;47.60;;;;;;222977;1264;24193;-57
2023/12/02 07:20:51;;;;;;;10.60;8.70;;;19.10;47.50;;;;;;222632;1269;25347;-57
2023/12/02 07:25:56;;;;;;;11.30;9.40;;;19.00;47.50;;;;;;223026;1267;26551;-58
2023/12/02 07:31:00;;;;;;;10.00;8.90;;;19.00;47.50;;;;;;222893;1263;25619;-58
2023/12/02 07:36:05;;;;;;;10.10;9.00;;;18.90;47.50;;;;;;223006;1268;24253;-58
2023/12/02 07:41:09;;;;;;;11.00;8.70;;;19.00;47.40;;;;;;222495;1260;25118;-58
2023/12/02 07:46:14;;;;;;;9.90;8.80;;;19.60;46.60;;;;;;222124;1263;22512;-58
2023/12/02 07:51:18;;;;;;;9.20;8.20;;;20.00;45.70;;;;;;222554;1261;22580;-60
2023/12/02 07:56:23;;;;;;;12.90;9.50;;;20.30;45.20;;;;;;222560;1259;22518;-57
2023/12/02 08:01:27;;;;;;;11.90;8.60;;;20.30;45.20;;;;;;223270;1267;25302;-57
2023/12/02 08:06:31;;;;;;;8.90;7.90;;;20.20;45.30;;;;;;222780;1268;22521;-58
2023/12/02 08:11:36;;;;;;;9.40;8.40;;;20.20;45.60;;;;;;222539;1268;22533;-58
2023/12/02 08:16:40;;;;;;;8.50;7.70;;;20.10;45.30;;;;;;222959;1258;22527;-57
2023/12/02 08:21:45;;;;;;;10.10;8.40;;;19.90;46.10;;;;;;222522;1268;23939;-54
2023/12/02 08:26:49;;;;;;;10.40;8.60;;;19.80;45.80;;;;;;222875;1254;23004;-58
2023/12/02 08:31:53;;;;;;;12.00;9.00;;;19.80;45.90;;;;;;222655;1268;22518;-57
2023/12/02 08:36:58;;;;;;;10.10;8.40;;;19.60;46.20;;;;;;222652;1261;22635;-59
2023/12/02 08:42:03;;;;;;;10.40;8.30;;;19.60;46.20;;;;;;222564;1254;22508;-58
2023/12/02 08:47:07;;;;;;;9.80;8.40;;;19.60;46.30;;;;;;222493;1269;22525;-58
2023/12/02 08:52:12;;;;;;;10.00;8.30;;;19.50;46.00;;;;;;222685;1267;24188;-57
2023/12/02 08:57:16;;;;;;;9.90;8.70;;;19.40;46.60;;;;;;222913;1269;22543;-58
2023/12/02 09:02:20;;;;;;;10.20;9.00;;;19.40;47.10;;;;;;222746;1253;22575;-58
2023/12/02 09:07:26;;;;;;;11.20;8.80;;;19.30;46.80;;;;;;222719;1268;22526;-57
2023/12/02 09:12:31;;;;;;;11.00;9.30;;;19.20;46.90;;;;;;222417;1268;25635;-58
2023/12/02 09:17:44;;;;;;;10.00;8.90;;;19.20;46.80;;;;;;222657;1268;22532;-57
2023/12/02 09:22:49;;;;;;;10.30;9.20;;;19.20;46.80;;;;;;222867;1268;23921;-58
2023/12/02 09:28:19;;;;;;;9.50;8.50;;;19.20;46.80;;;;;;222728;1254;22537;-56
2023/12/02 09:33:25;;;;;;;11.80;8.70;;;19.10;47.00;;;;;;222812;1263;22523;-58
2023/12/02 09:38:32;;;;;;;11.80;9.00;;;19.10;47.00;;;;;;222686;1266;22521;-57
2023/12/02 09:43:42;;;;;;;10.30;8.60;;;19.00;47.00;;;;;;222673;1259;22575;-57
2023/12/02 09:48:50;;;;;;;10.50;8.90;;;19.00;47.10;;;;;;223036;1264;22529;-59
2023/12/02 09:54:00;;;;;;;9.70;8.50;;;19.20;47.10;;;;;;222802;1268;22517;-57
2023/12/02 09:59:21;;;;;;;10.50;9.40;;;19.70;45.80;;;;;;223120;1253;23885;-57
2023/12/02 10:04:41;;;;;;;10.80;9.70;;;20.10;45.80;;;;;;222349;1268;22530;-57
2023/12/02 10:10:01;;;;;;;10.20;9.10;;;20.30;45.10;;;;;;222398;1267;24228;-56
2023/12/02 10:15:11;;;;;;;12.30;9.40;;;20.30;44.60;;;;;;222773;1269;23945;-58
2023/12/02 10:20:16;;;;;;;10.70;9.50;;;20.20;44.90;;;;;;223202;1269;24277;-54
2023/12/02 10:25:56;;;;;;;10.80;9.70;;;20.10;45.20;;;;;;222829;1269;22716;-58
2023/12/02 10:31:05;;;;;;;11.20;9.40;;;20.00;45.40;;;;;;221098;1272;22526;-58
2023/12/02 10:36:11;;;;;;;12.50;9.60;;;19.70;45.80;;;;;;221087;1270;22687;-58
2023/12/02 10:41:39;;;;;;;10.90;9.80;;;19.80;45.70;;;;;;221023;1272;24403;-58
2023/12/02 10:46:44;;;;;;;9.90;8.90;;;19.60;46.00;;;;;;220849;1274;22592;-58
2023/12/02 10:51:52;;;;;;;13.70;10.20;;;19.50;46.60;;;;;;221003;1276;22535;-57
2023/12/02 10:57:07;;;;;;;12.10;10.60;;;19.40;45.90;;;;;;220935;1276;22770;-57
2023/12/02 11:02:29;;;;;;;12.20;10.50;;;19.40;46.30;;;;;;221025;1270;22551;-58
2023/12/02 11:07:34;;;;;;;11.50;10.30;;;19.50;46.30;;;;;;221914;1254;22615;-58
2023/12/02 11:12:51;;;;;;;11.90;9.80;;;19.40;46.30;;;;;;222148;1266;22523;-55
2023/12/02 11:18:03;;;;;;;13.20;10.60;;;19.40;46.80;;;;;;222478;1269;25226;-57
2023/12/02 11:23:24;;;;;;;10.90;9.70;;;19.30;46.50;;;;;;222725;1267;22639;-58
2023/12/02 11:28:48;;;;;;;12.70;10.40;;;19.20;46.50;;;;;;222762;1266;22591;-57
2023/12/02 11:34:33;;;;;;;13.10;10.60;;;19.20;46.60;;;;;;222260;1269;25390;-56
2023/12/02 11:39:56;;;;;;;12.70;11.10;;;19.20;46.50;;;;;;222170;1264;22523;-57
2023/12/02 11:45:16;;;;;;;12.30;10.70;;;19.20;46.90;;;;;;223057;1264;24229;-57
2023/12/02 11:50:29;;;;;;;11.70;10.10;;;19.10;46.50;;;;;;222507;1269;24349;-56
2023/12/02 11:55:51;;;;;;;11.90;10.70;;;19.00;46.60;;;;;;222367;1264;24361;-58
2023/12/02 12:01:07;;;;;;;;;;;19.20;46.60;;;;;;222539;1268;22517;-57
2023/12/02 12:06:49;;;;;;;13.10;11.10;;;19.70;46.10;;;;;;222521;1268;22663;-57
2023/12/02 12:11:56;;;;;;;11.00;9.70;;;20.10;45.60;;;;;;222924;1268;22536;-58
2023/12/02 12:17:00;;;;;;;12.10;10.20;;;20.20;44.90;;;;;;223097;1255;24371;-56
2023/12/02 12:22:05;;;;;;;11.40;10.10;;;20.20;44.70;;;;;;222664;1260;22518;-57
2023/12/02 12:27:10;;;;;;;12.50;10.90;;;20.10;44.90;;;;;;222501;1245;22665;-57
2023/12/02 12:32:18;;;;;;;12.60;11.30;;;19.90;45.10;;;;;;222604;1267;24384;-55
2023/12/02 12:37:23;;;;;;;11.00;9.90;;;20.00;45.10;;;;;;222361;1257;22641;-57
2023/12/02 12:42:27;;;;;;;12.00;10.80;;;19.90;45.30;;;;;;222526;1268;22754;-59
2023/12/02 12:47:32;;;;;;;12.50;10.50;;;19.80;45.50;;;;;;222338;1266;22700;-57
2023/12/02 12:52:50;;;;;;;12.20;10.90;;;19.60;46.60;;;;;;222774;1266;22739;-56
2023/12/02 12:58:00;;;;;;;11.90;10.70;;;19.40;46.40;;;;;;222571;1254;24234;-56
2023/12/02 13:03:32;;;;;;;13.30;10.70;;;19.40;46.30;;;;;;222383;1260;25278;-57
2023/12/02 13:08:50;;;;;;;11.50;10.20;;;19.40;46.10;;;;;;222628;1268;22517;-56
2023/12/02 13:14:04;;;;;;;13.10;11.20;;;19.50;45.90;;;;;;223029;1268;22642;-55
2023/12/02 13:19:11;;;;;;;13.30;11.20;;;19.40;46.10;;;;;;222869;1254;22548;-60
2023/12/02 13:24:17;;;;;;;11.50;10.30;;;19.30;46.20;;;;;;222391;1268;22491;-56
2023/12/02 13:29:26;;;;;;;15.00;11.50;;;19.30;46.30;;;;;;222403;1268;22514;-57
2023/12/02 13:34:49;;;;;;;11.80;10.60;;;19.10;46.30;;;;;;222270;1266;23860;-57
2023/12/02 13:39:56;;;;;;;12.30;11.10;;;19.10;47.00;;;;;;222715;1263;22532;-57
2023/12/02 13:45:08;;;;;;;13.50;11.20;;;19.10;46.50;;;;;;222606;1263;22525;-57
2023/12/02 13:50:18;;;;;;;12.20;10.70;;;19.20;46.30;;;;;;222900;1266;25460;-59
2023/12/02 13:55:41;;;;;;;12.40;10.20;;;19.10;46.40;;;;;;222980;1266;22642;-56
2023/12/02 14:01:07;;;;;;;11.90;10.60;;;19.10;46.80;;;;;;222630;1264;24209;-58
2023/12/02 14:06:23;;;;;;;12.50;11.20;;;19.50;45.70;;;;;;222808;1264;22622;-56
2023/12/02 14:11:45;;;;;;;12.30;10.10;;;20.00;45.20;;;;;;222761;1268;22702;-57
2023/12/02 14:17:32;;;;;;;11.30;10.10;;;20.30;44.40;;;;;;222691;1268;25280;-56
2023/12/02 14:23:07;;;;;;;12.00;10.10;;;20.30;44.10;;;;;;222482;1268;22525;-57
2023/12/02 14:28:46;;;;;;;12.10;10.80;;;20.20;44.30;;;;;;222614;1264;22552;-57
2023/12/02 14:34:11;;;;;;;10.90;9.80;;;20.20;44.60;;;;;;222871;1255;22905;-56
2023/12/02 14:39:39;;;;;;;10.80;9.70;;;20.10;45.00;;;;;;222735;1267;25458;-55
2023/12/02 14:44:43;;;;;;;11.60;10.40;;;19.80;45.10;;;;;;222918;1256;23084;-56
2023/12/02 14:49:49;;;;;;;11.90;9.80;;;19.60;45.60;;;;;;223013;1254;24858;-57
2023/12/02 14:54:55;;;;;;;11.10;10.00;;;19.60;45.60;;;;;;222553;1266;22527;-56
2023/12/02 15:00:06;;;;;;;12.60;10.60;;;19.40;45.80;;;;;;222602;1268;22531;-57
2023/12/02 15:05:11;;;;;;;11.10;9.80;;;19.40;46.30;;;;;;222613;1268;25231;-57
2023/12/02 15:10:16;;;;;;;11.70;10.50;;;19.40;45.60;;;;;;222663;1266;22622;-57
2023/12/02 15:15:38;;;;;;;11.60;9.90;;;19.50;45.60;;;;;;222471;1264;22688;-57
2023/12/02 15:21:02;;;;;;;11.00;9.80;;;19.40;45.80;;;;;;222831;1268;24372;-56
2023/12/02 15:26:13;;;;;;;11.70;10.40;;;19.30;45.90;;;;;;222761;1266;25410;-59
2023/12/02 15:31:17;;;;;;;11.20;10.00;;;19.20;45.90;;;;;;222320;1253;24222;-57
2023/12/02 15:36:24;;;;;;;10.70;9.60;;;19.20;46.20;;;;;;222707;1246;24388;-57
2023/12/02 15:41:28;;;;;;;11.10;10.00;;;19.10;46.20;;;;;;222565;1254;26525;-58
2023/12/02 15:46:35;;;;;;;12.30;10.00;;;19.10;46.30;;;;;;222764;1244;22812;-57
2023/12/02 15:51:40;;;;;;;11.70;10.50;;;19.10;46.20;;;;;;222872;1264;22530;-58
2023/12/02 15:56:46;;;;;;;11.20;10.00;;;19.10;46.30;;;;;;222665;1268;22592;-55
2023/12/02 16:01:52;;;;;;;11.60;9.70;;;19.50;45.90;;;;;;222907;1254;22920;-56
2023/12/02 16:06:56;;;;;;;12.30;10.10;;;19.90;44.80;;;;;;222746;1264;22599;-57
2023/12/02 16:12:03;;;;;;;10.40;9.30;;;20.30;44.50;;;;;;222485;1268;22602;-57
2023/12/02 16:17:11;;;;;;;11.10;9.80;;;20.40;43.90;;;;;;222419;1263;22521;-57
2023/12/02 16:22:16;;;;;;;11.00;9.90;;;20.20;44.20;;;;;;222992;1264;24209;-58
2023/12/02 16:27:22;;;;;;;11.50;10.10;;;20.10;44.30;;;;;;222693;1259;24188;-57
2023/12/02 16:32:28;;;;;;;11.30;10.10;;;20.10;44.40;;;;;;222690;1268;22513;-57
2023/12/02 16:37:32;;;;;;;12.40;9.80;;;19.90;44.50;;;;;;222691;1266;22668;-57
2023/12/02 16:42:36;;;;;;;11.00;9.90;;;19.90;44.60;;;;;;222670;1256;22630;-56
2023/12/02 16:47:48;;;;;;;10.50;9.50;;;19.70;45.50;;;;;;222717;1268;22528;-57
2023/12/02 16:52:59;;;;;;;10.50;9.30;;;19.60;45.50;;;;;;223237;1266;22606;-57
2023/12/02 16:58:06;;;;;;;12.50;9.50;;;19.50;45.30;;;;;;222610;1256;22547;-56
2023/12/02 17:03:26;;;;;;;12.30;9.80;;;19.50;44.70;;;;;;222621;1260;25278;-57
2023/12/02 17:08:39;;;;;;;10.50;9.50;;;19.50;45.30;;;;;;222724;1266;25396;-58
2023/12/02 17:13:46;;;;;;;11.10;10.00;;;19.50;45.10;;;;;;222756;1263;22543;-57
2023/12/02 17:19:14;;;;;;;10.80;9.60;;;19.30;45.40;;;;;;222592;1264;23478;-58
2023/12/02 17:24:29;;;;;;;10.10;9.10;;;19.30;45.60;;;;;;222793;1260;24190;-56
2023/12/02 17:29:35;;;;;;;10.90;9.10;;;19.20;45.70;;;;;;222630;1268;22626;-57
2023/12/02 17:34:39;;;;;;;10.40;9.40;;;19.20;45.90;;;;;;222381;1258;22514;-57
2023/12/02 17:39:43;;;;;;;10.20;9.00;;;19.10;45.90;;;;;;222512;1253;26494;-57
2023/12/02 17:44:48;;;;;;;10.20;9.20;;;19.10;45.80;;;;;;222768;1263;22545;-57
2023/12/02 17:49:52;;;;;;;9.70;8.70;;;19.00;46.00;;;;;;222354;1268;22592;-58
2023/12/02 17:54:56;;;;;;;10.20;8.40;;;19.30;45.90;;;;;;222584;1268;22524;-57
2023/12/02 18:00:00;;;;;;;10.30;8.60;;;19.80;44.70;;;;;;222692;1267;25227;-58
2023/12/02 18:05:13;;;;;;;;;;;20.20;44.10;;;;;;222599;1254;22491;-57
2023/12/02 18:10:18;;;;;;;9.30;8.40;;;20.30;43.60;;;;;;222665;1263;25596;-58
2023/12/02 18:15:23;;;;;;;8.70;7.90;;;20.30;43.80;;;;;;223266;1266;22527;-58
2023/12/02 18:20:27;;;;;;;10.10;8.70;;;20.10;44.40;;;;;;222982;1266;319500;-57
2023/12/02 18:25:31;;;;;;;9.50;8.60;;;19.90;44.80;;;;;;222807;1256;24189;-56
2023/12/02 18:30:36;;;;;;;9.00;8.10;;;19.90;44.60;;;;;;222776;1268;24358;-58
2023/12/02 18:35:40;;;;;;;9.30;8.30;;;19.80;44.60;;;;;;222696;1263;24198;-57
2023/12/02 18:40:45;;;;;;;9.40;8.40;;;19.60;45.00;;;;;;222747;1264;24198;-57
2023/12/02 18:45:49;;;;;;;8.40;7.60;;;19.60;45.00;;;;;;222711;1266;22514;-57
2023/12/02 18:50:54;;;;;;;8.90;8.00;;;19.50;45.10;;;;;;222699;1263;23164;-56
2023/12/02 18:55:59;;;;;;;9.30;8.20;;;19.50;45.30;;;;;;222622;1263;22651;-58
2023/12/02 19:01:05;;;;;;;9.10;8.20;;;19.50;45.40;;;;;;222726;1268;22524;-58
2023/12/02 19:06:15;;;;;;;9.10;8.20;;;19.50;45.10;;;;;;222683;1254;24243;-58
2023/12/02 19:11:19;;;;;;;10.60;7.90;;;19.40;45.30;;;;;;222281;1260;22530;-56
2023/12/02 19:16:23;;;;;;;9.20;7.50;;;19.30;45.80;;;;;;222541;1254;25277;-55
2023/12/02 19:21:27;;;;;;;8.30;7.50;;;19.20;45.70;;;;;;222598;1263;22637;-58
2023/12/02 19:26:33;;;;;;;7.70;7.00;;;19.20;46.00;;;;;;222564;1263;22538;-57
2023/12/02 19:31:37;;;;;;;8.70;7.60;;;19.10;45.70;;;;;;222949;1256;25331;-58
2023/12/02 19:36:42;;;;;;;8.40;7.60;;;19.10;45.80;;;;;;222839;1263;22511;-59
2023/12/02 19:41:46;;;;;;;7.90;7.10;;;19.00;45.80;;;;;;222561;1263;22627;-58
2023/12/02 19:46:56;;;;;;;8.60;7.80;;;19.30;45.40;;;;;;222455;1268;22630;-56
2023/12/02 19:52:02;;;;;;;7.90;7.20;;;19.80;44.90;;;;;;222535;1261;24353;-57
2023/12/02 19:57:06;;;;;;;7.50;6.80;;;20.20;43.90;;;;;;222554;1268;22521;-57
2023/12/02 20:02:11;;;;;;;7.20;6.60;;;20.30;43.50;;;;;;222609;1267;22511;-57
2023/12/02 20:07:17;;;;;;;7.00;6.40;;;20.30;44.00;;;;;;222822;1263;25347;-57
2023/12/02 20:12:22;;;;;;;7.40;6.70;;;20.10;43.80;;;;;;222583;1260;22626;-57
2023/12/02 20:17:27;;;;;;;7.70;6.80;;;20.00;44.50;;;;;;222860;1262;24196;-56
2023/12/02 20:22:32;;;;;;;8.40;7.40;;;19.90;44.40;;;;;;223054;1263;22567;-58
2023/12/02 20:27:37;;;;;;;7.10;6.40;;;19.80;44.50;;;;;;222763;1268;22575;-57
2023/12/02 20:32:42;;;;;;;7.30;6.70;;;19.70;44.70;;;;;;222875;1261;25335;-55
2023/12/02 20:37:46;;;;;;;7.80;6.50;;;19.60;45.00;;;;;;223150;1253;22635;-57
2023/12/02 20:42:51;;;;;;;7.20;6.40;;;19.50;44.80;;;;;;222803;1260;22515;-56
2023/12/02 20:47:55;;;;;;;6.60;6.00;;;19.50;45.60;;;;;;221745;1272;22516;-57
2023/12/02 20:53:00;;;;;;;7.10;6.40;;;19.50;45.30;;;;;;221592;1272;22513;-59
2023/12/02 20:58:04;;;;;;;7.00;6.30;;;19.50;44.90;;;;;;221916;1272;22656;-57
2023/12/02 21:03:09;;;;;;;7.00;6.40;;;19.40;45.00;;;;;;221899;1269;22608;-57
2023/12/02 21:08:13;;;;;;;6.20;5.70;;;19.30;45.20;;;;;;221527;1272;22520;-57
2023/12/02 21:13:17;;;;;;;6.70;6.10;;;19.30;45.70;;;;;;221566;1272;22521;-58
2023/12/02 21:18:21;;;;;;;6.70;6.10;;;19.20;45.70;;;;;;222161;1261;22517;-57
2023/12/02 21:23:26;;;;;;;6.60;6.00;;;19.60;44.80;;;;;;222280;1254;22531;-56
2023/12/02 21:28:31;;;;;;;6.70;6.10;;;20.10;43.90;;;;;;222404;1269;23844;-56
2023/12/02 21:33:35;;;;;;;6.20;5.60;;;20.40;43.30;;;;;;222537;1269;22633;-57
2023/12/02 21:38:42;;;;;;;6.20;5.60;;;20.60;42.90;;;;;;222342;1266;22532;-57
2023/12/02 21:43:51;;;;;;;5.70;5.20;;;20.50;43.10;;;;;;222571;1261;22653;-57
2023/12/02 21:49:02;;;;;;;6.60;6.00;;;20.40;43.30;;;;;;222239;1269;25561;-58
2023/12/02 21:54:14;;;;;;;5.90;5.30;;;20.30;43.50;;;;;;222472;1260;22517;-57
2023/12/02 21:59:23;;;;;;;6.60;6.00;;;20.20;44.00;;;;;;222175;1267;23843;-57
2023/12/02 22:04:40;;;;;;;5.80;5.30;;;20.00;43.90;;;;;;222201;1259;22511;-57
2023/12/02 22:09:44;;;;;;;6.40;5.80;;;19.90;44.10;;;;;;222365;1269;22504;-58
2023/12/02 22:14:49;;;;;;;5.70;5.20;;;19.80;44.80;;;;;;222448;1260;25321;-58
2023/12/02 22:19:54;;;;;;;5.90;5.40;;;19.70;44.50;;;;;;222550;1264;25265;-57
2023/12/02 22:24:58;;;;;;;5.60;5.10;;;19.70;45.20;;;;;;222473;1263;25354;-57
2023/12/02 22:30:22;;;;;;;5.60;5.00;;;19.60;44.50;;;;;;222760;1268;22586;-57
2023/12/02 22:36:04;;;;;;;6.40;5.90;;;19.60;44.60;;;;;;222988;1264;22574;-57
2023/12/02 22:41:13;;;;;;;5.30;4.80;;;19.50;45.10;;;;;;220943;1253;22889;-56
2023/12/02 22:46:22;;;;;;;6.00;5.20;;;19.40;44.90;;;;;;220974;1271;22543;-57
2023/12/02 22:51:28;;;;;;;5.40;5.00;;;19.90;43.80;;;;;;220939;1274;22536;-56
2023/12/02 22:56:36;;;;;;;5.20;4.70;;;20.30;43.50;;;;;;220918;1272;22539;-56
2023/12/02 23:01:41;;;;;;;5.30;4.50;;;20.60;43.40;;;;;;220751;1265;22573;-57
2023/12/02 23:06:45;;;;;;;5.10;4.60;;;20.70;42.80;;;;;;220700;1276;22597;-57
2023/12/02 23:11:51;;;;;;;4.90;4.50;;;20.60;43.20;;;;;;221156;1265;23957;-56
2023/12/02 23:16:57;;;;;;;5.20;4.80;;;20.50;43.00;;;;;;221850;1263;22529;-56
2023/12/02 23:22:02;;;;;;;4.70;4.00;;;20.40;43.60;;;;;;222646;1266;24182;-58
2023/12/02 23:27:27;;;;;;;5.20;4.70;;;20.30;43.40;;;;;;222431;1268;24385;-57
2023/12/02 23:32:51;;;;;;;5.80;5.30;;;20.10;43.80;;;;;;222469;1254;22514;-56
2023/12/02 23:37:55;;;;;;;5.30;4.80;;;20.00;44.00;;;;;;222641;1267;22629;-57
2023/12/02 23:43:01;;;;;;;5.10;4.70;;;19.90;44.20;;;;;;222645;1263;22701;-57
2023/12/02 23:48:05;;;;;;;5.20;4.80;;;19.90;44.20;;;;;;222624;1246;22530;-57
2023/12/02 23:53:10;;;;;;;4.70;4.20;;;19.90;44.30;;;;;;222183;1269;22609;-60
2023/12/02 23:58:14;;;;;;;4.80;4.30;;;19.80;44.20;;;;;;222713;1263;22921;-57
